Time;durP1;ratioP1;P1;durP2;ratioP2;P2;SDS_P1;SDS_P2;PMS_P1;PMS_P2;Temp;Humidity;BMP_temperature;BMP_pressure;BME280_temperature;BME280_humidity;BME280_pressure;Samples;Min_cycle;Max_cycle;Signal;HPM_P1;HPM_P2
2023/12/28 00:02:20;;;;;;;32.20;22.03;;;10.30;98.40;;;;;;5065252;28;20205;-80
2023/12/28 00:04:52;;;;;;;31.67;21.77;;;10.30;98.40;;;;;;5057967;28;20212;-79
2023/12/28 00:07:19;;;;;;;31.90;21.33;;;10.30;98.40;;;;;;5056135;28;20222;-78
2023/12/28 00:09:47;;;;;;;30.93;23.00;;;10.30;98.40;;;;;;5065084;28;20197;-80
2023/12/28 00:12:14;;;;;;;30.73;20.97;;;10.30;98.40;;;;;;5076771;28;20204;-80
2023/12/28 00:14:41;;;;;;;25.40;20.73;;;10.20;98.40;;;;;;5047016;28;20300;-79
2023/12/28 00:17:08;;;;;;;26.70;19.83;;;10.20;98.40;;;;;;5073322;28;20193;-79
2023/12/28 00:19:35;;;;;;;31.10;21.67;;;10.20;98.40;;;;;;5085262;28;20270;-80
2023/12/28 00:22:03;;;;;;;32.90;20.63;;;10.20;98.40;;;;;;5053910;28;20225;-79
2023/12/28 00:24:30;;;;;;;28.10;18.80;;;10.20;98.50;;;;;;5079757;28;20192;-80
2023/12/28 00:26:57;;;;;;;25.80;18.83;;;10.20;98.30;;;;;;5079943;28;20214;-79
2023/12/28 00:29:24;;;;;;;35.97;22.97;;;10.10;98.20;;;;;;5081390;28;20193;-80
2023/12/28 00:31:51;;;;;;;34.40;22.60;;;10.10;98.30;;;;;;5067504;28;20325;-78
2023/12/28 00:34:18;;;;;;;31.07;21.30;;;10.10;98.30;;;;;;5057491;28;20290;-80
2023/12/28 00:36:46;;;;;;;30.93;21.80;;;10.10;98.40;;;;;;5062472;28;20208;-79
2023/12/28 00:39:13;;;;;;;30.10;21.27;;;10.00;98.30;;;;;;5073802;28;20243;-79
2023/12/28 00:41:40;;;;;;;29.23;21.70;;;10.00;98.30;;;;;;5079457;28;20275;-79
2023/12/28 00:44:09;;;;;;;42.60;26.83;;;10.00;98.40;;;;;;5068491;28;20656;-78
2023/12/28 00:46:36;;;;;;;37.13;24.87;;;9.90;98.40;;;;;;5067338;28;20194;-80
2023/12/28 00:49:05;;;;;;;38.90;25.00;;;9.90;98.50;;;;;;5074449;28;20523;-79
2023/12/28 00:51:33;;;;;;;37.87;27.30;;;9.90;98.50;;;;;;5076930;28;20214;-78
2023/12/28 00:54:00;;;;;;;42.73;29.63;;;9.90;98.50;;;;;;5085385;28;20213;-79
2023/12/28 00:56:28;;;;;;;41.90;28.07;;;9.90;98.60;;;;;;5073407;28;20237;-78
2023/12/28 00:58:55;;;;;;;43.07;28.10;;;9.90;98.60;;;;;;5067875;28;20204;-78
2023/12/28 01:01:22;;;;;;;35.97;26.37;;;9.90;98.70;;;;;;5084603;28;20221;-78
2023/12/28 01:03:49;;;;;;;37.53;25.10;;;9.90;98.70;;;;;;5075663;28;20200;-80
2023/12/28 01:06:17;;;;;;;38.33;26.23;;;9.90;98.80;;;;;;5064885;28;20530;-80
2023/12/28 01:08:44;;;;;;;40.23;28.20;;;9.90;98.70;;;;;;5080566;28;20195;-80
2023/12/28 01:11:12;;;;;;;41.73;27.07;;;9.90;98.70;;;;;;5075310;28;20625;-80
2023/12/28 01:13:41;;;;;;;38.07;26.03;;;9.80;98.70;;;;;;5058019;28;20499;-79
2023/12/28 01:16:08;;;;;;;37.33;26.63;;;9.80;98.80;;;;;;5075436;28;20259;-79
2023/12/28 01:18:36;;;;;;;51.13;29.30;;;9.80;98.80;;;;;;5084429;28;20610;-80
2023/12/28 01:21:03;;;;;;;40.60;29.50;;;9.80;98.80;;;;;;5059478;28;20363;-80
2023/12/28 01:23:31;;;;;;;43.43;29.33;;;9.80;98.80;;;;;;5080522;28;20258;-79
2023/12/28 01:25:59;;;;;;;42.20;28.73;;;9.70;98.80;;;;;;5079358;28;20637;-80
2023/12/28 01:28:27;;;;;;;43.37;28.93;;;9.70;98.80;;;;;;5062702;28;20530;-79
2023/12/28 01:30:54;;;;;;;38.83;28.53;;;9.70;98.80;;;;;;5071182;28;20202;-80
2023/12/28 01:33:21;;;;;;;41.10;27.33;;;9.70;98.80;;;;;;5069229;28;20201;-80
2023/12/28 01:35:48;;;;;;;51.33;28.63;;;9.60;98.70;;;;;;5060346;28;20218;-80
2023/12/28 01:38:15;;;;;;;42.63;27.17;;;9.60;98.70;;;;;;5077938;28;20222;-80
2023/12/28 01:40:46;;;;;;;47.33;28.13;;;9.60;98.80;;;;;;5064414;28;20214;-80
2023/12/28 01:43:14;;;;;;;51.67;30.00;;;9.50;98.80;;;;;;5076841;28;20222;-79
2023/12/28 01:45:41;;;;;;;46.23;29.53;;;9.50;98.80;;;;;;5089964;28;20277;-79
2023/12/28 01:48:09;;;;;;;42.23;30.23;;;9.40;98.80;;;;;;5089903;28;20199;-80
2023/12/28 01:50:37;;;;;;;44.37;29.13;;;9.40;98.80;;;;;;5066211;28;20200;-82
2023/12/28 01:53:04;;;;;;;51.50;30.10;;;9.30;98.80;;;;;;5083581;28;20232;-80
2023/12/28 01:55:34;;;;;;;41.97;28.20;;;9.30;98.80;;;;;;5075974;28;20273;-80
2023/12/28 01:58:01;;;;;;;41.27;27.20;;;9.30;98.80;;;;;;5104313;28;20221;-80
2023/12/28 02:00:31;;;;;;;55.70;33.10;;;9.30;98.80;;;;;;5073500;28;20259;-80
2023/12/28 02:02:59;;;;;;;46.27;30.23;;;9.20;98.80;;;;;;5075030;28;20318;-80
2023/12/28 02:05:27;;;;;;;49.03;31.03;;;9.20;98.90;;;;;;5084468;28;20302;-80
2023/12/28 02:07:54;;;;;;;46.20;28.83;;;9.20;98.90;;;;;;5089082;28;20226;-81
2023/12/28 02:10:23;;;;;;;44.23;28.93;;;9.20;98.90;;;;;;5075636;28;20268;-80
2023/12/28 02:12:53;;;;;;;52.23;30.33;;;9.10;98.90;;;;;;5077436;28;20801;-80
2023/12/28 02:15:22;;;;;;;44.10;29.10;;;9.10;98.80;;;;;;5076818;28;20218;-80
2023/12/28 02:18:02;;;;;;;48.63;29.10;;;9.00;98.70;;;;;;5067279;28;20216;-80
2023/12/28 02:20:30;;;;;;;45.67;29.80;;;9.00;98.70;;;;;;5074810;28;20279;-80
2023/12/28 02:22:59;;;;;;;42.33;30.07;;;9.00;98.80;;;;;;5077842;28;20219;-80
2023/12/28 02:25:26;;;;;;;43.63;28.20;;;9.00;98.90;;;;;;5074194;28;20192;-80
2023/12/28 02:27:53;;;;;;;43.93;29.33;;;9.00;98.90;;;;;;5083104;28;20289;-80
2023/12/28 02:30:23;;;;;;;46.40;32.00;;;8.90;98.90;;;;;;5076039;28;20209;-80
2023/12/28 02:33:11;;;;;;;44.90;30.93;;;8.90;98.90;;;;;;5086933;28;20198;-80
2023/12/28 02:35:49;;;;;;;43.13;31.23;;;8.90;98.90;;;;;;5058055;28;20204;-80
2023/12/28 02:38:17;;;;;;;42.90;30.47;;;8.90;99.00;;;;;;5071718;28;20203;-81
2023/12/28 02:40:45;;;;;;;45.67;33.40;;;8.90;99.10;;;;;;5077364;28;20207;-80
2023/12/28 02:43:13;;;;;;;39.33;30.47;;;8.90;99.10;;;;;;5074961;28;20238;-80
2023/12/28 02:45:40;;;;;;;38.60;31.10;;;8.90;99.10;;;;;;5072434;28;20565;-80
2023/12/28 02:48:08;;;;;;;43.27;31.70;;;8.90;99.10;;;;;;5053981;28;20663;-80
2023/12/28 02:50:35;;;;;;;48.53;34.23;;;9.00;99.20;;;;;;5079622;28;20236;-80
2023/12/28 02:53:03;;;;;;;43.63;32.80;;;9.00;99.20;;;;;;5073388;28;20199;-80
2023/12/28 02:55:30;;;;;;;45.30;33.47;;;9.00;99.20;;;;;;5077062;28;20208;-80
2023/12/28 02:58:00;;;;;;;45.93;33.60;;;9.00;99.20;;;;;;5069168;28;20266;-80
2023/12/28 03:00:30;;;;;;;44.63;33.57;;;9.00;99.20;;;;;;5064311;28;20198;-80
2023/12/28 03:02:57;;;;;;;50.17;34.63;;;9.00;99.30;;;;;;5064601;28;20311;-80
2023/12/28 03:05:24;;;;;;;47.90;33.03;;;9.00;99.30;;;;;;5095269;28;20193;-80
2023/12/28 03:07:52;;;;;;;47.57;34.43;;;9.00;99.40;;;;;;5059059;28;20240;-79
2023/12/28 03:10:19;;;;;;;50.27;35.57;;;9.10;99.40;;;;;;5071388;28;20225;-80
2023/12/28 03:12:46;;;;;;;44.47;33.57;;;9.00;99.40;;;;;;5075108;28;20195;-80
2023/12/28 03:15:13;;;;;;;49.53;34.57;;;9.00;99.50;;;;;;5088294;28;20651;-80
2023/12/28 03:17:40;;;;;;;48.00;32.67;;;9.10;99.60;;;;;;5075254;28;20200;-80
2023/12/28 03:20:10;;;;;;;43.80;32.57;;;9.10;99.60;;;;;;5087396;28;20707;-80
2023/12/28 03:22:37;;;;;;;44.67;30.90;;;9.00;99.60;;;;;;5060784;28;20620;-79
2023/12/28 03:25:05;;;;;;;46.57;33.73;;;9.00;99.90;;;;;;5063579;28;20199;-80
2023/12/28 03:27:32;;;;;;;43.20;31.47;;;9.00;99.60;;;;;;5068537;28;20199;-80
2023/12/28 03:29:59;;;;;;;45.60;30.90;;;9.00;99.90;;;;;;5066334;28;20297;-80
2023/12/28 03:32:27;;;;;;;44.93;33.37;;;9.00;99.60;;;;;;5072172;28;20257;-80
2023/12/28 03:34:54;;;;;;;41.77;31.90;;;9.00;99.60;;;;;;5058398;28;20562;-80
2023/12/28 03:37:21;;;;;;;44.83;31.87;;;9.00;99.50;;;;;;5067967;28;20204;-80
2023/12/28 03:39:49;;;;;;;40.90;30.43;;;8.90;99.50;;;;;;5074899;28;20655;-80
2023/12/28 03:42:16;;;;;;;43.50;31.83;;;8.90;99.50;;;;;;5067894;28;20527;-80
2023/12/28 03:44:44;;;;;;;41.57;29.07;;;8.90;99.60;;;;;;5089533;28;20309;-80
2023/12/28 03:47:12;;;;;;;44.10;31.90;;;8.80;99.50;;;;;;5076324;28;20204;-80
2023/12/28 03:49:39;;;;;;;39.03;28.57;;;8.80;99.60;;;;;;5087915;28;20250;-80
2023/12/28 03:52:08;;;;;;;38.60;29.17;;;8.80;99.60;;;;;;5057727;28;20273;-80
2023/12/28 03:54:35;;;;;;;37.73;28.60;;;8.70;99.50;;;;;;5076814;28;20194;-79
2023/12/28 03:57:02;;;;;;;39.60;28.17;;;8.70;99.50;;;;;;5072585;28;20226;-80
2023/12/28 03:59:30;;;;;;;37.30;27.87;;;8.70;99.50;;;;;;5069442;28;20228;-80
2023/12/28 04:01:57;;;;;;;36.67;27.23;;;8.60;99.30;;;;;;5054319;28;20204;-79
2023/12/28 04:04:24;;;;;;;31.20;24.10;;;8.60;99.30;;;;;;5073661;28;20234;-80
2023/12/28 04:06:51;;;;;;;36.67;25.07;;;8.50;99.30;;;;;;5074531;28;20541;-79
2023/12/28 04:09:19;;;;;;;34.57;25.83;;;8.40;99.30;;;;;;5064703;28;20210;-80
2023/12/28 04:11:46;;;;;;;30.47;24.13;;;8.40;99.40;;;;;;5074464;28;20207;-80
2023/12/28 04:14:13;;;;;;;37.67;24.57;;;8.40;99.40;;;;;;5066308;28;20277;-80
2023/12/28 04:16:41;;;;;;;33.93;25.23;;;8.30;99.40;;;;;;5064491;28;20226;-80
2023/12/28 04:19:08;;;;;;;36.27;25.37;;;8.30;99.40;;;;;;5073094;28;20231;-80
2023/12/28 04:21:35;;;;;;;29.03;23.43;;;8.30;99.40;;;;;;5067091;28;20201;-80
2023/12/28 04:24:03;;;;;;;35.00;23.03;;;8.20;99.30;;;;;;5074954;28;20676;-80
2023/12/28 04:26:30;;;;;;;31.87;23.03;;;8.10;99.20;;;;;;5075571;28;20200;-80
2023/12/28 04:28:58;;;;;;;38.13;24.80;;;8.10;99.30;;;;;;5065969;28;20247;-81
2023/12/28 04:31:25;;;;;;;44.23;25.97;;;8.10;99.30;;;;;;5074028;28;20263;-79
2023/12/28 04:33:53;;;;;;;39.43;26.20;;;8.00;99.30;;;;;;5076898;28;20205;-79
2023/12/28 04:36:20;;;;;;;46.77;25.20;;;7.90;99.20;;;;;;5077475;28;20208;-80
2023/12/28 04:38:48;;;;;;;57.93;24.70;;;7.90;99.20;;;;;;5084703;28;20262;-80
2023/12/28 04:41:15;;;;;;;49.87;25.07;;;7.80;99.20;;;;;;5064451;28;20219;-81
2023/12/28 04:43:43;;;;;;;31.40;23.77;;;7.80;99.20;;;;;;5081639;28;20218;-81
2023/12/28 04:46:10;;;;;;;41.50;23.70;;;7.70;99.20;;;;;;5074097;28;20217;-80
2023/12/28 04:48:37;;;;;;;40.43;22.27;;;7.60;99.20;;;;;;5082890;28;20270;-80
2023/12/28 04:51:05;;;;;;;39.77;21.67;;;7.60;99.20;;;;;;5058241;28;20199;-81
2023/12/28 04:53:33;;;;;;;27.87;21.60;;;7.50;99.20;;;;;;5078558;28;20568;-80
2023/12/28 04:56:00;;;;;;;27.07;19.97;;;7.50;99.10;;;;;;5077108;28;20209;-80
2023/12/28 04:58:28;;;;;;;21.37;18.33;;;7.40;99.10;;;;;;5070083;28;20232;-80
2023/12/28 05:00:55;;;;;;;21.07;17.33;;;7.30;99.10;;;;;;5074780;28;20259;-80
2023/12/28 05:03:22;;;;;;;22.10;17.90;;;7.30;99.20;;;;;;5084221;28;20224;-80
2023/12/28 05:05:52;;;;;;;19.60;15.97;;;7.20;99.10;;;;;;5077759;28;20206;-80
2023/12/28 05:08:19;;;;;;;24.80;17.67;;;7.20;99.10;;;;;;5069189;28;20212;-79
2023/12/28 05:10:47;;;;;;;19.87;16.43;;;7.10;99.10;;;;;;5065223;28;20544;-80
2023/12/28 05:13:14;;;;;;;19.97;17.00;;;7.10;99.10;;;;;;5076630;28;20260;-81
2023/12/28 05:15:42;;;;;;;21.60;16.47;;;7.00;99.10;;;;;;5057685;28;20222;-80
2023/12/28 05:18:09;;;;;;;20.30;16.07;;;7.00;99.10;;;;;;5071732;28;20269;-80
2023/12/28 05:20:36;;;;;;;22.00;16.90;;;7.00;99.10;;;;;;5064984;28;20205;-80
2023/12/28 05:23:03;;;;;;;25.00;17.57;;;6.90;99.10;;;;;;5069126;28;20254;-80
2023/12/28 05:25:30;;;;;;;23.43;17.30;;;6.90;99.10;;;;;;5077780;28;20248;-81
2023/12/28 05:27:58;;;;;;;25.07;16.33;;;7.00;99.20;;;;;;5083834;28;20315;-80
2023/12/28 05:30:25;;;;;;;20.23;16.33;;;6.90;99.20;;;;;;5069978;28;20235;-80
2023/12/28 05:32:52;;;;;;;21.67;17.43;;;6.90;99.20;;;;;;5079108;28;20232;-80
2023/12/28 05:35:19;;;;;;;24.73;18.87;;;7.00;99.20;;;;;;5096173;28;20209;-80
2023/12/28 05:37:47;;;;;;;23.63;17.73;;;7.00;99.20;;;;;;5098362;28;20224;-80
2023/12/28 05:40:14;;;;;;;20.33;16.40;;;7.00;99.20;;;;;;5078134;28;20208;-80
2023/12/28 05:42:41;;;;;;;24.07;18.33;;;7.00;99.20;;;;;;5081389;28;20301;-81
2023/12/28 05:45:09;;;;;;;24.83;17.67;;;7.10;99.30;;;;;;5095171;28;20201;-80
2023/12/28 05:47:36;;;;;;;22.20;16.67;;;7.10;99.30;;;;;;5076939;28;20202;-81
2023/12/28 05:50:05;;;;;;;25.50;16.57;;;7.10;99.30;;;;;;5074297;28;20543;-80
2023/12/28 05:52:33;;;;;;;21.33;17.00;;;7.10;99.30;;;;;;5080669;28;20205;-81
2023/12/28 05:55:00;;;;;;;27.40;18.77;;;7.20;99.20;;;;;;5094026;28;20300;-80
2023/12/28 05:57:30;;;;;;;22.90;16.43;;;7.20;99.20;;;;;;5087853;28;20215;-81
2023/12/28 05:59:58;;;;;;;23.83;16.63;;;7.20;99.20;;;;;;5076732;28;20649;-80
2023/12/28 06:02:25;;;;;;;20.87;15.77;;;7.20;99.20;;;;;;5089115;28;20262;-80
2023/12/28 06:04:52;;;;;;;21.00;15.00;;;7.20;99.10;;;;;;5072794;28;20207;-79
2023/12/28 06:07:19;;;;;;;24.20;16.57;;;7.10;99.10;;;;;;5089488;28;20195;-80
2023/12/28 06:09:46;;;;;;;23.87;15.73;;;7.10;99.00;;;;;;5094841;28;20201;-80
2023/12/28 06:12:14;;;;;;;21.83;17.00;;;7.10;99.00;;;;;;5074431;28;20194;-80
2023/12/28 06:14:41;;;;;;;23.30;16.40;;;7.10;99.00;;;;;;5076988;28;20204;-80
2023/12/28 06:17:09;;;;;;;24.87;16.77;;;7.00;99.10;;;;;;5075963;28;20204;-80
2023/12/28 06:19:36;;;;;;;27.97;16.77;;;7.00;99.10;;;;;;5066032;28;20237;-80
2023/12/28 06:22:03;;;;;;;27.93;16.43;;;7.00;99.10;;;;;;5080165;28;20272;-80
2023/12/28 06:24:30;;;;;;;25.33;15.57;;;6.90;99.00;;;;;;5050711;28;20228;-80
2023/12/28 06:26:58;;;;;;;21.87;15.17;;;6.90;99.00;;;;;;5078318;28;20194;-79
2023/12/28 06:29:25;;;;;;;17.27;14.30;;;6.90;99.00;;;;;;5067656;28;20222;-79
2023/12/28 06:31:52;;;;;;;18.37;14.43;;;6.80;99.00;;;;;;5066412;28;20215;-80
2023/12/28 06:34:19;;;;;;;24.50;14.53;;;6.80;99.00;;;;;;5058671;28;20282;-79
2023/12/28 06:36:46;;;;;;;24.80;15.50;;;6.80;99.00;;;;;;5065895;28;20268;-80
2023/12/28 06:39:14;;;;;;;20.93;15.33;;;6.70;99.00;;;;;;5074101;28;20266;-80
2023/12/28 06:41:41;;;;;;;23.73;15.07;;;6.70;99.00;;;;;;5056352;28;20527;-80
2023/12/28 06:44:13;;;;;;;24.03;13.77;;;6.70;99.00;;;;;;5067387;28;20218;-80
2023/12/28 06:46:41;;;;;;;17.67;13.03;;;6.70;99.10;;;;;;5074727;28;20635;-80
2023/12/28 06:49:08;;;;;;;16.40;12.63;;;6.70;99.10;;;;;;5057753;28;20291;-79
2023/12/28 06:51:37;;;;;;;21.33;14.53;;;6.60;99.10;;;;;;5077124;28;21107;-80
2023/12/28 06:54:05;;;;;;;21.87;14.13;;;6.60;99.30;;;;;;5059086;28;20206;-80
2023/12/28 06:56:32;;;;;;;19.23;14.70;;;6.60;99.00;;;;;;5071243;28;20213;-80
2023/12/28 06:58:59;;;;;;;19.57;15.97;;;6.60;99.00;;;;;;5071689;28;20220;-80
2023/12/28 07:01:26;;;;;;;25.83;15.67;;;6.50;99.00;;;;;;5071638;28;20213;-80
2023/12/28 07:03:53;;;;;;;23.47;15.63;;;6.50;99.10;;;;;;5056085;28;20218;-80
2023/12/28 07:06:20;;;;;;;26.70;15.40;;;6.50;99.10;;;;;;5060016;28;20209;-80
2023/12/28 07:08:47;;;;;;;23.43;16.87;;;6.50;99.10;;;;;;5074827;28;20212;-80
2023/12/28 07:11:15;;;;;;;22.93;16.13;;;6.50;99.10;;;;;;5069109;28;20289;-80
2023/12/28 07:13:42;;;;;;;21.73;15.10;;;6.50;99.10;;;;;;5072755;28;20623;-80
2023/12/28 07:16:09;;;;;;;20.40;14.10;;;6.50;99.20;;;;;;5065830;28;20206;-80
2023/12/28 07:18:37;;;;;;;17.13;14.03;;;6.60;99.20;;;;;;5065169;28;21730;-80
2023/12/28 07:21:06;;;;;;;18.27;13.20;;;6.60;99.20;;;;;;5081984;28;20196;-79
2023/12/28 07:23:33;;;;;;;19.97;14.13;;;6.60;99.20;;;;;;5096245;28;20282;-82
2023/12/28 07:26:00;;;;;;;18.67;13.40;;;6.60;99.10;;;;;;5085032;28;20213;-81
2023/12/28 07:28:28;;;;;;;16.60;12.87;;;6.60;99.00;;;;;;5088187;28;20199;-81
2023/12/28 07:30:55;;;;;;;17.20;12.57;;;6.60;98.90;;;;;;5078375;28;20288;-81
2023/12/28 07:33:22;;;;;;;17.90;12.80;;;6.50;98.80;;;;;;5079956;28;20867;-80
2023/12/28 07:35:50;;;;;;;17.90;12.03;;;6.60;98.90;;;;;;5067389;28;20204;-81
2023/12/28 07:38:17;;;;;;;19.00;12.73;;;6.60;98.90;;;;;;5071031;28;20209;-80
2023/12/28 07:40:44;;;;;;;19.43;12.53;;;6.60;98.90;;;;;;5079360;28;20509;-80
2023/12/28 07:43:11;;;;;;;18.60;12.13;;;6.60;98.90;;;;;;5071517;28;20642;-80
2023/12/28 07:45:38;;;;;;;16.27;12.27;;;6.60;98.80;;;;;;5076623;28;20294;-80
2023/12/28 07:48:06;;;;;;;18.53;12.40;;;6.60;98.80;;;;;;5054206;28;20200;-80
2023/12/28 07:50:33;;;;;;;24.17;17.10;;;6.70;98.90;;;;;;5086510;28;20626;-80
2023/12/28 07:53:01;;;;;;;23.73;16.50;;;6.70;98.90;;;;;;5078406;28;20552;-80
2023/12/28 07:55:28;;;;;;;19.13;13.70;;;6.80;99.00;;;;;;5072494;28;20204;-80
2023/12/28 07:57:55;;;;;;;18.57;13.83;;;6.80;99.00;;;;;;5073598;28;20204;-80
2023/12/28 08:00:23;;;;;;;18.03;12.97;;;6.90;99.00;;;;;;5075512;28;20241;-79
2023/12/28 08:02:51;;;;;;;18.43;12.60;;;6.90;99.00;;;;;;5083514;28;20662;-80
2023/12/28 08:05:18;;;;;;;14.73;11.40;;;7.00;99.00;;;;;;5075617;28;20617;-80
2023/12/28 08:07:45;;;;;;;17.83;11.70;;;7.10;99.00;;;;;;5069286;28;20210;-80
2023/12/28 08:10:12;;;;;;;18.03;10.73;;;7.10;99.00;;;;;;5072881;28;20201;-79
2023/12/28 08:12:39;;;;;;;18.23;10.30;;;7.20;98.90;;;;;;5070450;28;20294;-79
2023/12/28 08:15:07;;;;;;;15.80;10.13;;;7.30;98.90;;;;;;5085138;28;20630;-79
2023/12/28 08:17:34;;;;;;;13.07;10.80;;;7.40;98.90;;;;;;5075402;28;20225;-78
2023/12/28 08:20:01;;;;;;;12.27;10.03;;;7.40;98.90;;;;;;5060995;28;20237;-78
2023/12/28 08:22:29;;;;;;;19.83;11.07;;;7.50;98.80;;;;;;5070564;28;20280;-78
2023/12/28 08:24:57;;;;;;;16.93;10.97;;;7.60;98.70;;;;;;5086747;28;20232;-79
2023/12/28 08:27:24;;;;;;;17.80;10.90;;;7.70;98.70;;;;;;5060176;28;20595;-79
2023/12/28 08:29:51;;;;;;;13.90;10.90;;;7.80;98.60;;;;;;5066861;28;20195;-78
2023/12/28 08:32:19;;;;;;;22.17;11.43;;;7.90;98.50;;;;;;5069543;28;20196;-80
2023/12/28 08:34:47;;;;;;;14.80;10.30;;;7.90;98.50;;;;;;5071666;28;20288;-78
2023/12/28 08:37:15;;;;;;;15.93;10.87;;;8.00;98.40;;;;;;5078198;28;20561;-79
2023/12/28 08:39:42;;;;;;;22.37;12.40;;;8.10;98.40;;;;;;5068258;28;20279;-78
2023/12/28 08:42:09;;;;;;;16.87;12.63;;;8.20;98.30;;;;;;5060153;28;20617;-78
2023/12/28 08:44:36;;;;;;;14.73;12.00;;;8.30;98.20;;;;;;5076514;28;20221;-78
2023/12/28 08:47:04;;;;;;;17.90;12.10;;;8.40;98.20;;;;;;5087050;28;20206;-79
2023/12/28 08:49:33;;;;;;;15.73;12.43;;;8.40;98.10;;;;;;5073891;28;20218;-79
2023/12/28 08:52:00;;;;;;;19.17;13.00;;;8.50;98.10;;;;;;5071690;28;20654;-80
2023/12/28 08:54:27;;;;;;;15.03;12.03;;;8.60;98.00;;;;;;5078750;28;20339;-79
2023/12/28 08:56:54;;;;;;;15.20;11.83;;;8.70;98.00;;;;;;5091815;28;20199;-79
2023/12/28 08:59:25;;;;;;;17.37;12.27;;;8.80;98.00;;;;;;5082308;28;20643;-78
2023/12/28 09:01:55;;;;;;;16.60;11.90;;;8.90;97.80;;;;;;5075698;28;20208;-79
2023/12/28 09:04:23;;;;;;;17.47;11.83;;;9.00;97.60;;;;;;5077177;28;20211;-79
2023/12/28 09:06:50;;;;;;;20.47;13.90;;;9.10;97.50;;;;;;5080263;28;20532;-79
2023/12/28 09:09:18;;;;;;;18.53;12.00;;;9.10;97.40;;;;;;5086753;28;20279;-79
2023/12/28 09:11:45;;;;;;;17.80;13.20;;;9.20;97.40;;;;;;5076696;28;20226;-79
2023/12/28 09:14:12;;;;;;;17.43;13.10;;;9.30;97.40;;;;;;5066364;28;20640;-79
2023/12/28 09:16:41;;;;;;;18.27;13.83;;;9.40;97.40;;;;;;5076444;28;20198;-79
2023/12/28 09:19:09;;;;;;;18.47;13.23;;;9.50;97.30;;;;;;5069939;28;20238;-79
2023/12/28 09:21:36;;;;;;;19.60;13.10;;;9.60;97.20;;;;;;5069854;28;20648;-79
2023/12/28 09:24:03;;;;;;;20.57;14.33;;;9.70;97.20;;;;;;5059578;28;20684;-79
2023/12/28 09:26:32;;;;;;;17.67;13.60;;;9.80;97.10;;;;;;5072083;28;20212;-79
2023/12/28 09:28:59;;;;;;;19.43;14.17;;;9.90;96.90;;;;;;5051434;28;20224;-79
2023/12/28 09:31:26;;;;;;;16.57;13.10;;;9.90;96.80;;;;;;5058140;28;20239;-79
2023/12/28 09:33:54;;;;;;;22.87;13.33;;;10.10;96.70;;;;;;5071368;28;20202;-80
2023/12/28 09:36:21;;;;;;;27.33;14.93;;;10.10;96.60;;;;;;5070075;28;20210;-78
2023/12/28 09:38:48;;;;;;;20.07;14.53;;;10.20;96.50;;;;;;5072395;28;20282;-79
2023/12/28 09:41:17;;;;;;;20.03;14.70;;;10.30;96.40;;;;;;5089613;28;20302;-79
2023/12/28 09:43:54;;;;;;;26.37;14.93;;;10.40;96.30;;;;;;5071079;28;20235;-80
2023/12/28 09:46:26;;;;;;;20.43;14.90;;;10.50;96.30;;;;;;5078901;28;20198;-78
2023/12/28 09:48:56;;;;;;;22.07;17.00;;;10.60;96.20;;;;;;5075276;28;20716;-79
2023/12/28 09:51:25;;;;;;;23.17;16.27;;;10.70;96.10;;;;;;5077498;28;20189;-79
2023/12/28 09:53:53;;;;;;;24.97;16.27;;;10.80;96.10;;;;;;5070337;28;20636;-79
2023/12/28 09:56:20;;;;;;;23.47;16.97;;;10.90;95.90;;;;;;5076586;28;20201;-79
2023/12/28 09:58:50;;;;;;;20.40;15.73;;;10.90;95.80;;;;;;5090587;28;20296;-79
2023/12/28 10:01:19;;;;;;;29.43;19.57;;;11.00;96.10;;;;;;5073818;28;20205;-80
2023/12/28 10:03:46;;;;;;;35.17;22.87;;;11.10;95.70;;;;;;5075001;28;20562;-80
2023/12/28 10:06:15;;;;;;;32.50;20.23;;;11.20;95.70;;;;;;5074322;28;20467;-81
2023/12/28 10:08:47;;;;;;;25.10;19.17;;;11.20;95.60;;;;;;5070996;28;20221;-80
2023/12/28 10:11:16;;;;;;;31.40;20.87;;;11.30;95.50;;;;;;5076436;28;20201;-80
2023/12/28 10:13:46;;;;;;;29.43;21.50;;;11.40;95.40;;;;;;5075566;28;20191;-80
2023/12/28 10:16:13;;;;;;;32.87;22.03;;;11.50;95.30;;;;;;5074774;28;20263;-80
2023/12/28 10:18:44;;;;;;;31.00;22.03;;;11.60;95.30;;;;;;5084092;28;20237;-80
2023/12/28 10:21:12;;;;;;;31.67;22.70;;;11.70;95.20;;;;;;5078464;28;20299;-80
2023/12/28 10:23:40;;;;;;;34.77;25.67;;;11.70;95.10;;;;;;5082494;28;20202;-79
2023/12/28 10:26:08;;;;;;;36.20;25.50;;;11.70;94.80;;;;;;5081610;28;20259;-79
2023/12/28 10:28:39;;;;;;;41.37;29.37;;;11.70;94.80;;;;;;5075377;28;20509;-80
2023/12/28 10:31:08;;;;;;;34.90;26.50;;;11.70;94.90;;;;;;5076551;28;20189;-80
2023/12/28 10:33:36;;;;;;;36.70;26.47;;;11.70;94.90;;;;;;5077628;28;20531;-80
2023/12/28 10:36:07;;;;;;;36.00;26.93;;;11.70;95.10;;;;;;5077694;28;20237;-80
2023/12/28 10:38:36;;;;;;;36.17;26.70;;;11.70;95.20;;;;;;5080195;28;20197;-79
2023/12/28 10:41:07;;;;;;;30.83;24.93;;;11.80;95.30;;;;;;5076168;28;20207;-79
2023/12/28 10:44:02;;;;;;;37.77;26.90;;;11.80;95.30;;;;;;5080834;28;20192;-79
2023/12/28 10:46:43;;;;;;;42.73;27.70;;;11.90;95.20;;;;;;5072724;28;20327;-78
2023/12/28 10:49:12;;;;;;;36.70;28.37;;;12.00;95.10;;;;;;5087246;28;20263;-80
2023/12/28 10:51:48;;;;;;;38.93;29.83;;;12.00;95.10;;;;;;5081403;28;20539;-79
2023/12/28 10:54:33;;;;;;;40.03;30.33;;;12.10;95.20;;;;;;5063895;28;20284;-80
2023/12/28 10:57:04;;;;;;;40.30;29.77;;;12.20;95.00;;;;;;5072683;28;20233;-80
2023/12/28 11:00:02;;;;;;;38.47;30.67;;;12.30;95.00;;;;;;5070704;28;20201;-79
2023/12/28 11:02:39;;;;;;;44.30;31.97;;;12.30;95.10;;;;;;5075033;28;20228;-80
2023/12/28 11:05:07;;;;;;;44.37;32.00;;;12.30;95.20;;;;;;5057394;28;20692;-78
2023/12/28 11:07:36;;;;;;;41.00;31.87;;;12.40;95.20;;;;;;5080786;28;20232;-79
2023/12/28 11:10:06;;;;;;;41.03;31.37;;;12.50;95.30;;;;;;5067253;28;20194;-78
2023/12/28 11:12:37;;;;;;;44.00;31.53;;;12.50;95.20;;;;;;5077183;28;20259;-79
2023/12/28 11:15:06;;;;;;;41.83;31.77;;;12.60;95.10;;;;;;5061008;28;20210;-78
2023/12/28 11:17:37;;;;;;;51.70;35.03;;;12.70;95.00;;;;;;5067012;28;20586;-80
2023/12/28 11:20:06;;;;;;;44.27;32.77;;;12.70;94.90;;;;;;5071023;28;20214;-79
2023/12/28 11:22:34;;;;;;;47.07;34.20;;;12.80;95.00;;;;;;5082644;28;20196;-78
2023/12/28 11:25:01;;;;;;;47.10;34.93;;;12.90;94.70;;;;;;5074150;28;20719;-79
2023/12/28 11:27:38;;;;;;;49.10;35.80;;;12.90;94.70;;;;;;5082444;28;20191;-78
2023/12/28 11:30:06;;;;;;;48.43;35.30;;;12.90;94.80;;;;;;5075526;28;20257;-78
2023/12/28 11:32:35;;;;;;;45.20;35.30;;;13.00;94.80;;;;;;5055688;28;20212;-79
2023/12/28 11:35:09;;;;;;;52.17;38.03;;;13.10;94.80;;;;;;5064299;28;20208;-78
2023/12/28 11:37:40;;;;;;;47.13;36.33;;;13.20;94.80;;;;;;5095641;28;20266;-78
2023/12/28 11:40:16;;;;;;;45.10;37.63;;;13.30;94.80;;;;;;5081713;28;20212;-79
2023/12/28 11:42:53;;;;;;;49.00;37.70;;;13.30;94.50;;;;;;5091246;28;20299;-78
2023/12/28 11:45:22;;;;;;;45.10;37.77;;;13.40;94.50;;;;;;5084476;28;20247;-78
2023/12/28 11:48:03;;;;;;;47.93;37.30;;;13.50;94.40;;;;;;5057602;28;20228;-79
2023/12/28 11:50:31;;;;;;;49.37;36.33;;;13.70;94.40;;;;;;5063439;28;20202;-80
2023/12/28 11:52:59;;;;;;;43.30;34.90;;;13.80;94.10;;;;;;5072801;28;20624;-78
2023/12/28 11:55:27;;;;;;;43.97;35.60;;;13.80;93.90;;;;;;5058041;28;20509;-79
2023/12/28 11:57:55;;;;;;;44.90;34.90;;;13.90;93.80;;;;;;5042658;28;20206;-79
2023/12/28 12:00:25;;;;;;;43.30;33.13;;;14.00;93.60;;;;;;5068354;28;20260;-78
2023/12/28 12:02:55;;;;;;;46.67;33.53;;;14.10;93.50;;;;;;5068744;28;20220;-78
2023/12/28 12:05:23;;;;;;;41.80;31.13;;;14.10;93.40;;;;;;5078199;28;20217;-79
2023/12/28 12:07:50;;;;;;;44.50;32.37;;;14.20;93.20;;;;;;5082933;28;20291;-79
2023/12/28 12:10:17;;;;;;;42.90;31.73;;;14.30;92.90;;;;;;5076788;28;20214;-79
2023/12/28 12:12:44;;;;;;;43.73;33.00;;;14.40;92.80;;;;;;5076866;28;20200;-78
2023/12/28 12:15:12;;;;;;;41.67;31.53;;;14.50;92.70;;;;;;5083326;28;20200;-79
2023/12/28 12:17:39;;;;;;;41.63;33.27;;;14.50;92.40;;;;;;5075370;28;20289;-80
2023/12/28 12:20:09;;;;;;;42.67;30.70;;;14.60;92.30;;;;;;5080170;28;20235;-79
2023/12/28 12:22:39;;;;;;;41.90;31.23;;;14.70;92.10;;;;;;5066884;28;20225;-80
2023/12/28 12:25:08;;;;;;;41.93;32.53;;;14.70;91.80;;;;;;5071253;28;20231;-79
2023/12/28 12:27:38;;;;;;;47.37;33.03;;;14.60;91.70;;;;;;5054648;28;20205;-80
2023/12/28 12:30:06;;;;;;;43.50;32.13;;;14.60;91.60;;;;;;5064840;28;20297;-81
2023/12/28 12:32:37;;;;;;;45.37;33.67;;;14.50;91.60;;;;;;5069215;28;20202;-79
2023/12/28 12:35:06;;;;;;;42.80;31.73;;;14.50;91.80;;;;;;5071965;28;20208;-80
2023/12/28 12:37:33;;;;;;;41.03;31.37;;;14.40;91.80;;;;;;5064902;28;20194;-79
2023/12/28 12:40:00;;;;;;;39.83;33.27;;;14.40;91.80;;;;;;5068420;28;20210;-80